Estación Meteorológica Peña el Pijo (Robertgarden) [ 01/30/23 14:38:54 CET ]

Fecha Hora Presion(HPa) Temp (°C) Humedad % Rocio (°C) Viento ( m/s) Direccion Lluvia 1Hora(mm) Lluvia 24H(mm) LLuvia Total(mm)
2012-May-24 01:01:12 1015.500 11.6 57 3.3         159.54
2012-May-24 02:01:14 1015.200 10.3 62 3.3         159.54
2012-May-24 03:03:19 1014.700 9.8 64 3.3         159.54
2012-May-24 04:01:16 1014.300 9.3 64 2.8         159.54
2012-May-24 05:01:13 1014.000 8.1 66 2.1         159.54
2012-May-24 06:01:18 1013.900 7.3 69 2.0         159.54
2012-May-24 07:01:14 1014.100 6.7 70 1.6         159.54
2012-May-24 08:01:14 1014.100 10.5 67 4.6         159.54
2012-May-24 09:01:16 1013.800 17.6 49 6.7         159.54
2012-May-24 10:01:13 1013.700 24.1 34 7.2         159.54
2012-May-24 11:01:15 1013.300 29.1 20 3.9         159.54
2012-May-24 12:01:16 1013.100 30.3 18 3.0         159.54
2012-May-24 13:01:12 1012.800 32.1 16 2.5         159.54
2012-May-24 14:01:15 1012.000 31.6 18 4.0         159.54
2012-May-24 15:01:16 1011.900 31.5 19 4.9         159.54
2012-May-24 16:01:13 1011.300 30.8 20 5.3 3.0 NE     159.54
2012-May-24 17:01:13 1011.000 31.5 19 4.9         159.54
2012-May-24 18:01:14 1011.000 29.8 20 4.4 1.8 ENE     159.54
2012-May-24 19:01:12 1010.900 27.9 21 3.5 3.5 ENE     159.54
2012-May-24 20:01:13 1011.400 24.5 24 2.4 2.8 NE     159.54
2012-May-24 21:01:16 1011.700 21.9 26 1.3 0.9 ENE     159.54
2012-May-24 22:01:13 1011.900 18.8 33 2.1         159.54
2012-May-24 23:01:14 1012.600 15.1 44 2.9         159.54

Temperatura Máxima:32°    Temperatura Mínima:
Presión Máxima:1015.500 Hpa    Presión Mínima:1010.900 Hpa


Volver